Havilah, California
Current Conditions -  °F | °C
As of 2:15 PM on Tuesday 21 Oct 2014 (Local Time) from KMHV Reporting Station
Clear Clear  
Wind Chill: 72°   Ceiling: Unl
Heat Index: 72°   Visibility: 10mi
Dew Point: 41°   Wind: 17mph
Humidity: 33%   Direction: 280°W
Pressure: 29.9"   Gusts: 26mph
Location:  35.3287°N, 118.419°W
Report Text: KMHV 212115Z AUTO 28015G23KT 10SM CLR 22/05 A2990 RMK AO1
Loading
Personal Weather Stations






























Interactive Weather Map
Tropical Storm Tracking
New forecast layout! Learn more

10-Day Weather Forecast

Advertisements
Track Severe Weather on mobile